Time;durP1;ratioP1;P1;durP2;ratioP2;P2;SDS_P1;SDS_P2;PMS_P1;PMS_P2;Temp;Humidity;BMP_temperature;BMP_pressure;BME280_temperature;BME280_humidity;BME280_pressure;Samples;Min_cycle;Max_cycle;Signal;HPM_P1;HPM_P2
2023/09/12 00:00:18;;;;;;;33.92;27.15;;;20.50;99.90;;;;;;5010414;28;20049;-64
2023/09/12 00:02:44;;;;;;;33.10;26.67;;;20.50;99.90;;;;;;4995709;28;20058;-63
2023/09/12 00:05:11;;;;;;;33.20;26.77;;;20.60;99.90;;;;;;4994915;28;20189;-63
2023/09/12 00:07:39;;;;;;;37.05;27.75;;;20.50;99.90;;;;;;4995687;28;20081;-65
2023/09/12 00:10:05;;;;;;;36.60;28.85;;;20.60;99.90;;;;;;4995603;28;20060;-65
2023/09/12 00:12:32;;;;;;;32.97;26.30;;;20.60;99.90;;;;;;5009495;28;20147;-63
2023/09/12 00:14:58;;;;;;;38.03;27.35;;;20.50;99.90;;;;;;5015107;28;20045;-64
2023/09/12 00:17:26;;;;;;;35.47;28.38;;;20.50;99.90;;;;;;5013438;28;20053;-64
2023/09/12 00:19:53;;;;;;;38.50;27.33;;;20.50;99.90;;;;;;5015013;28;20469;-64
2023/09/12 00:22:19;;;;;;;37.10;28.98;;;20.50;99.90;;;;;;5002787;28;20058;-63
2023/09/12 00:24:45;;;;;;;37.40;28.83;;;20.40;99.90;;;;;;4995702;28;20046;-63
2023/09/12 00:27:11;;;;;;;36.40;28.00;;;20.40;99.90;;;;;;4993940;28;20065;-63
2023/09/12 00:29:38;;;;;;;40.08;29.48;;;20.30;99.90;;;;;;4995554;28;20176;-64
2023/09/12 00:32:05;;;;;;;38.83;27.65;;;20.30;99.90;;;;;;5004105;28;20454;-65
2023/09/12 00:34:31;;;;;;;35.53;25.27;;;20.30;99.90;;;;;;5013970;28;20120;-63
2023/09/12 00:36:57;;;;;;;35.90;27.85;;;20.30;99.90;;;;;;5013156;28;20128;-65
2023/09/12 00:39:24;;;;;;;35.60;25.80;;;20.30;99.90;;;;;;5014972;28;20406;-65
2023/09/12 00:41:50;;;;;;;35.20;27.48;;;20.30;99.90;;;;;;5005301;28;20051;-64
2023/09/12 00:44:16;;;;;;;33.90;26.67;;;20.30;99.90;;;;;;4994695;28;20493;-64
2023/09/12 00:46:45;;;;;;;37.17;26.60;;;20.30;99.90;;;;;;4993510;28;20066;-63
2023/09/12 00:49:13;;;;;;;35.42;27.05;;;20.30;99.90;;;;;;5005647;28;20461;-64
2023/09/12 00:51:39;;;;;;;36.35;27.75;;;20.40;99.90;;;;;;5009898;28;20073;-63
2023/09/12 00:54:06;;;;;;;37.97;28.45;;;20.30;99.90;;;;;;4993646;28;20455;-64
2023/09/12 00:56:33;;;;;;;36.70;28.02;;;20.20;99.90;;;;;;4994748;28;20047;-63
2023/09/12 00:59:00;;;;;;;36.72;28.30;;;20.20;99.90;;;;;;4994961;28;20061;-63
2023/09/12 01:01:27;;;;;;;37.97;29.40;;;20.20;99.90;;;;;;4999450;28;20124;-64
2023/09/12 01:03:54;;;;;;;40.92;30.15;;;20.20;99.90;;;;;;5013081;28;20050;-63
2023/09/12 01:06:25;;;;;;;39.45;30.02;;;20.10;99.90;;;;;;5013128;28;20050;-64
2023/09/12 01:08:52;;;;;;;40.38;29.40;;;20.10;99.90;;;;;;5014416;28;20061;-63
2023/09/12 01:11:20;;;;;;;34.75;28.45;;;20.00;99.90;;;;;;5008974;28;20125;-64
2023/09/12 01:13:46;;;;;;;41.47;31.40;;;19.90;99.90;;;;;;4994443;28;20047;-63
2023/09/12 01:16:12;;;;;;;39.83;30.58;;;19.90;99.90;;;;;;5009109;28;20101;-63
2023/09/12 01:18:41;;;;;;;43.35;31.10;;;19.90;99.90;;;;;;4993064;28;20054;-63
2023/09/12 01:21:38;;;;;;;42.47;30.77;;;19.80;99.90;;;;;;4996312;28;20055;-64
2023/09/12 01:24:10;;;;;;;44.40;30.10;;;19.90;99.90;;;;;;5014077;28;20131;-65
2023/09/12 01:26:59;;;;;;;45.47;31.13;;;19.80;99.90;;;;;;5013885;28;20072;-63
2023/09/12 01:29:26;;;;;;;41.80;29.85;;;19.70;99.90;;;;;;5012959;28;20053;-64
2023/09/12 01:31:53;;;;;;;42.45;31.13;;;19.70;99.90;;;;;;5004550;28;20118;-63
2023/09/12 01:34:19;;;;;;;40.00;30.33;;;19.70;99.90;;;;;;4994061;28;20419;-67
2023/09/12 01:36:46;;;;;;;42.90;30.35;;;19.60;99.90;;;;;;4992423;28;20509;-63
2023/09/12 01:39:12;;;;;;;44.15;31.83;;;19.60;99.90;;;;;;4994111;28;20054;-62
2023/09/12 01:41:42;;;;;;;39.75;29.45;;;19.70;99.90;;;;;;4999659;28;20049;-64
2023/09/12 01:44:10;;;;;;;44.55;31.52;;;19.60;99.90;;;;;;5013382;28;20489;-63
2023/09/12 01:46:37;;;;;;;39.30;29.63;;;19.50;99.90;;;;;;5012979;28;20386;-63
2023/09/12 01:49:07;;;;;;;41.70;31.17;;;19.60;99.90;;;;;;5012332;28;20062;-65
2023/09/12 01:51:34;;;;;;;43.65;32.22;;;19.50;99.90;;;;;;5007756;28;20047;-63
2023/09/12 01:54:03;;;;;;;43.33;31.63;;;19.60;99.90;;;;;;4993896;28;20057;-63
2023/09/12 01:56:30;;;;;;;41.95;30.48;;;19.50;99.90;;;;;;4993119;28;20050;-63
2023/09/12 01:58:57;;;;;;;46.42;33.42;;;19.40;99.90;;;;;;4993203;28;20046;-63
2023/09/12 02:01:26;;;;;;;47.08;32.72;;;19.50;99.90;;;;;;4997141;28;20049;-63
2023/09/12 02:03:53;;;;;;;43.65;33.05;;;19.40;99.90;;;;;;5013242;28;20106;-63
2023/09/12 02:06:19;;;;;;;43.80;32.30;;;19.40;99.90;;;;;;5012719;28;20054;-64
2023/09/12 02:08:45;;;;;;;46.55;32.80;;;19.30;99.90;;;;;;5013248;28;20103;-63
2023/09/12 02:11:12;;;;;;;46.55;33.53;;;19.30;99.90;;;;;;5010620;28;20060;-64
2023/09/12 02:13:38;;;;;;;49.92;36.22;;;19.30;99.90;;;;;;4992285;28;20046;-65
2023/09/12 02:16:04;;;;;;;53.22;35.95;;;19.30;99.90;;;;;;4993122;28;20078;-65
2023/09/12 02:18:30;;;;;;;60.50;36.22;;;19.30;99.90;;;;;;5009050;28;20441;-62
2023/09/12 02:20:58;;;;;;;56.20;34.70;;;19.20;99.90;;;;;;4993547;28;20371;-62
2023/09/12 02:23:25;;;;;;;55.40;35.95;;;19.20;99.90;;;;;;4992002;28;20062;-64
2023/09/12 02:25:51;;;;;;;61.30;35.08;;;19.10;99.90;;;;;;4992809;28;20332;-64
2023/09/12 02:28:17;;;;;;;61.47;39.40;;;19.10;99.90;;;;;;4992493;28;20116;-63
2023/09/12 02:30:44;;;;;;;58.03;38.55;;;19.20;99.90;;;;;;4993015;28;20423;-63
2023/09/12 02:33:10;;;;;;;82.32;40.40;;;19.20;99.90;;;;;;5009661;28;20042;-63
2023/09/12 02:35:36;;;;;;;59.47;39.13;;;19.20;99.90;;;;;;5012006;28;20128;-64
2023/09/12 02:38:02;;;;;;;101.60;39.10;;;19.30;99.90;;;;;;5011610;28;20403;-63
2023/09/12 02:40:29;;;;;;;114.95;38.20;;;19.30;99.90;;;;;;5012944;28;20053;-63
2023/09/12 02:42:55;;;;;;;111.43;37.60;;;19.30;99.90;;;;;;4996277;28;20050;-63
2023/09/12 02:45:21;;;;;;;66.47;33.17;;;19.30;99.90;;;;;;4992709;28;20390;-63
2023/09/12 02:47:47;;;;;;;90.70;36.70;;;19.30;99.90;;;;;;4993002;28;20070;-63
2023/09/12 02:50:14;;;;;;;96.10;33.92;;;19.30;99.90;;;;;;4992964;28;20054;-64
2023/09/12 02:52:40;;;;;;;53.53;30.60;;;19.20;99.90;;;;;;5006126;28;20370;-62
2023/09/12 02:55:06;;;;;;;55.97;33.70;;;19.30;99.90;;;;;;5012397;28;20061;-64
2023/09/12 02:57:33;;;;;;;68.90;32.67;;;19.20;99.90;;;;;;5012007;28;20060;-63
2023/09/12 02:59:59;;;;;;;55.85;32.97;;;19.20;99.90;;;;;;5011680;28;20366;-65
2023/09/12 03:02:25;;;;;;;65.45;34.22;;;19.30;99.90;;;;;;5000129;28;20065;-64
2023/09/12 03:04:52;;;;;;;67.90;33.20;;;19.20;99.90;;;;;;4992474;28;20065;-63
2023/09/12 03:07:18;;;;;;;59.15;32.55;;;19.30;99.90;;;;;;4992554;28;20345;-62
2023/09/12 03:09:48;;;;;;;58.13;34.20;;;19.20;99.90;;;;;;4992673;28;20054;-63
2023/09/12 03:12:14;;;;;;;62.47;33.30;;;19.20;99.90;;;;;;5002480;28;20045;-64
2023/09/12 03:14:41;;;;;;;50.05;32.67;;;19.20;99.90;;;;;;5011901;28;20065;-64
2023/09/12 03:17:07;;;;;;;66.95;34.30;;;19.20;99.90;;;;;;5011549;28;20050;-64
2023/09/12 03:19:33;;;;;;;63.45;33.28;;;19.10;99.90;;;;;;5012375;28;20107;-64
2023/09/12 03:21:59;;;;;;;59.28;34.30;;;19.00;99.90;;;;;;5003788;28;20050;-63
2023/09/12 03:24:25;;;;;;;59.58;33.00;;;19.00;99.90;;;;;;5007688;28;20050;-63
2023/09/12 03:26:52;;;;;;;49.70;32.13;;;19.10;99.90;;;;;;4992012;28;20145;-63
2023/09/12 03:29:18;;;;;;;52.83;30.52;;;19.00;99.90;;;;;;4992360;28;20323;-62
2023/09/12 03:31:44;;;;;;;67.78;33.55;;;18.90;99.90;;;;;;4997917;28;20049;-62
2023/09/12 03:34:11;;;;;;;104.47;33.72;;;19.00;99.90;;;;;;5011623;28;20481;-62
2023/09/12 03:36:37;;;;;;;71.07;31.80;;;18.90;99.90;;;;;;5011036;28;20056;-63
2023/09/12 03:39:05;;;;;;;214.25;37.72;;;18.90;99.90;;;;;;5011614;28;20113;-65
2023/09/12 03:41:31;;;;;;;91.35;33.40;;;18.80;99.90;;;;;;5006506;28;20113;-63
2023/09/12 03:43:58;;;;;;;136.13;33.50;;;18.70;99.90;;;;;;4991930;28;20053;-63
2023/09/12 03:46:24;;;;;;;237.18;34.53;;;18.70;99.90;;;;;;4990637;28;20050;-63
2023/09/12 03:48:50;;;;;;;87.28;29.77;;;18.60;99.90;;;;;;4992182;28;20042;-64
2023/09/12 03:51:17;;;;;;;122.97;32.55;;;18.60;99.90;;;;;;4992862;28;20050;-64
2023/09/12 03:53:43;;;;;;;186.48;35.13;;;18.60;99.90;;;;;;5011566;28;20046;-63
2023/09/12 03:56:12;;;;;;;137.40;32.75;;;18.60;99.90;;;;;;5011338;28;20065;-61
2023/09/12 03:58:39;;;;;;;167.77;33.92;;;18.50;99.90;;;;;;5011078;28;20045;-62
2023/09/12 04:01:05;;;;;;;156.10;32.25;;;18.50;99.90;;;;;;5009567;28;20072;-63
2023/09/12 04:03:32;;;;;;;105.75;31.80;;;18.60;99.90;;;;;;4991959;28;20051;-63
2023/09/12 04:05:58;;;;;;;164.80;32.35;;;18.50;99.90;;;;;;4990658;28;20054;-64
2023/09/12 04:08:24;;;;;;;256.10;32.95;;;18.50;99.90;;;;;;4991674;28;20373;-62
2023/09/12 04:10:50;;;;;;;181.88;31.42;;;18.50;99.90;;;;;;4990523;28;20458;-63
2023/09/12 04:13:17;;;;;;;84.90;28.52;;;18.40;99.90;;;;;;5009440;28;20401;-61
2023/09/12 04:15:43;;;;;;;135.55;28.48;;;18.40;99.90;;;;;;5010770;28;20082;-62
2023/09/12 04:18:09;;;;;;;208.50;31.85;;;18.40;99.90;;;;;;5011102;28;20050;-62
2023/09/12 04:20:35;;;;;;;150.95;29.02;;;18.50;99.90;;;;;;5010932;28;20481;-62
2023/09/12 04:23:02;;;;;;;90.32;26.88;;;18.50;99.90;;;;;;4994829;28;20493;-62
2023/09/12 04:25:30;;;;;;;121.90;29.90;;;18.50;99.90;;;;;;4999051;28;20053;-64
2023/09/12 04:27:56;;;;;;;90.72;26.10;;;18.50;99.90;;;;;;5010775;28;20062;-63
2023/09/12 04:30:23;;;;;;;101.18;26.63;;;18.60;99.90;;;;;;5011203;28;20065;-62
2023/09/12 04:32:49;;;;;;;91.90;27.27;;;18.60;99.90;;;;;;4996818;28;20050;-62
2023/09/12 04:35:15;;;;;;;128.68;27.33;;;18.60;99.90;;;;;;4990518;28;20046;-63
2023/09/12 04:37:42;;;;;;;74.75;27.15;;;18.60;99.90;;;;;;4990420;28;20061;-62
2023/09/12 04:40:09;;;;;;;89.55;26.23;;;18.60;99.90;;;;;;4991507;28;20039;-63
2023/09/12 04:42:35;;;;;;;101.43;27.00;;;18.60;99.90;;;;;;5003411;28;20133;-63
2023/09/12 04:45:01;;;;;;;61.72;25.33;;;18.50;99.90;;;;;;5003524;28;20054;-63
2023/09/12 04:47:28;;;;;;;82.15;26.73;;;18.50;99.90;;;;;;4990380;28;20077;-64
2023/09/12 04:49:54;;;;;;;86.00;25.13;;;18.50;99.90;;;;;;4991593;28;20464;-63
2023/09/12 04:52:20;;;;;;;72.93;25.25;;;18.40;99.90;;;;;;4991947;28;20086;-63
2023/09/12 04:54:46;;;;;;;76.95;25.92;;;18.50;99.90;;;;;;4993406;28;20050;-63
2023/09/12 04:57:13;;;;;;;78.85;24.67;;;18.40;99.90;;;;;;4993353;28;20081;-63
2023/09/12 04:59:39;;;;;;;60.97;25.10;;;18.30;99.90;;;;;;4993494;28;20050;-63
2023/09/12 05:02:05;;;;;;;75.20;26.33;;;18.40;99.90;;;;;;5001694;28;20060;-62
2023/09/12 05:04:32;;;;;;;62.60;23.80;;;18.40;99.90;;;;;;5014409;28;20065;-62
2023/09/12 05:06:58;;;;;;;65.82;23.95;;;18.30;99.90;;;;;;5014809;28;20405;-63
2023/09/12 05:09:24;;;;;;;70.68;23.13;;;18.40;99.90;;;;;;4997037;28;20790;-63
2023/09/12 05:11:50;;;;;;;97.10;24.45;;;18.40;99.90;;;;;;4993768;28;20042;-62
2023/09/12 05:14:17;;;;;;;84.05;25.50;;;18.30;99.90;;;;;;5008162;28;20054;-61
2023/09/12 05:16:43;;;;;;;80.95;25.17;;;18.20;99.90;;;;;;4993564;28;20114;-63
2023/09/12 05:19:09;;;;;;;96.20;25.25;;;18.20;99.90;;;;;;4994109;28;20058;-63
2023/09/12 05:21:35;;;;;;;148.27;28.55;;;18.20;99.90;;;;;;4995650;28;20057;-63
2023/09/12 05:24:02;;;;;;;106.28;26.98;;;18.20;99.90;;;;;;4994611;28;20142;-63
2023/09/12 05:26:28;;;;;;;140.30;27.95;;;18.10;99.90;;;;;;4993181;28;20057;-62
2023/09/12 05:28:54;;;;;;;62.53;25.00;;;18.10;99.90;;;;;;4994153;28;20584;-63
2023/09/12 05:31:21;;;;;;;54.10;26.92;;;18.10;99.90;;;;;;4994850;28;20058;-63
2023/09/12 05:33:48;;;;;;;68.18;25.63;;;18.20;99.90;;;;;;5011634;28;20065;-63
2023/09/12 05:36:14;;;;;;;38.45;22.90;;;18.20;99.90;;;;;;5011517;28;20398;-64
2023/09/12 05:38:41;;;;;;;36.97;24.25;;;18.20;99.90;;;;;;5013353;28;20450;-64
2023/09/12 05:41:07;;;;;;;32.20;24.90;;;18.30;99.90;;;;;;5012275;28;20082;-63
2023/09/12 05:43:33;;;;;;;38.25;24.67;;;18.30;99.90;;;;;;4994765;28;20058;-65
2023/09/12 05:45:59;;;;;;;38.03;25.38;;;18.40;99.90;;;;;;4994147;28;20115;-64
2023/09/12 05:48:26;;;;;;;32.95;24.25;;;18.40;99.90;;;;;;4994281;28;20064;-63
2023/09/12 05:50:52;;;;;;;37.22;26.63;;;18.40;99.90;;;;;;5009530;28;20116;-63
2023/09/12 05:53:18;;;;;;;35.83;26.35;;;18.50;99.90;;;;;;5009563;28;20065;-63
2023/09/12 05:55:44;;;;;;;34.65;26.02;;;18.40;99.90;;;;;;5012221;28;20297;-63
2023/09/12 05:58:11;;;;;;;37.10;26.08;;;18.50;99.90;;;;;;5013760;28;20187;-63
2023/09/12 06:00:37;;;;;;;34.95;26.80;;;18.50;99.90;;;;;;5013653;28;20081;-63
2023/09/12 06:03:03;;;;;;;34.47;27.35;;;18.50;99.90;;;;;;4998284;28;20054;-63
2023/09/12 06:05:30;;;;;;;32.70;25.15;;;18.40;99.90;;;;;;4993800;28;20062;-63
2023/09/12 06:07:56;;;;;;;35.20;27.00;;;18.40;99.90;;;;;;4993559;28;20046;-64
2023/09/12 06:10:22;;;;;;;36.25;27.10;;;18.50;99.90;;;;;;4993870;28;20046;-64
2023/09/12 06:12:49;;;;;;;30.42;24.55;;;18.50;99.90;;;;;;5005462;28;20046;-62
2023/09/12 06:15:15;;;;;;;35.70;26.75;;;18.40;99.90;;;;;;5011849;28;20829;-64
2023/09/12 06:17:42;;;;;;;35.35;27.08;;;18.50;99.90;;;;;;5013491;28;20042;-64
2023/09/12 06:20:08;;;;;;;39.92;26.95;;;18.60;99.90;;;;;;5013297;28;20366;-64
2023/09/12 06:22:35;;;;;;;36.63;26.67;;;18.50;99.90;;;;;;5001366;28;20073;-63
2023/09/12 06:25:03;;;;;;;44.03;29.60;;;18.60;99.90;;;;;;4991962;28;20108;-64
2023/09/12 06:27:30;;;;;;;41.50;30.13;;;18.70;99.90;;;;;;4992481;28;20054;-63
2023/09/12 06:29:56;;;;;;;42.13;30.45;;;18.80;99.90;;;;;;5008380;28;20046;-63
2023/09/12 06:32:23;;;;;;;45.33;32.20;;;18.90;99.90;;;;;;5001603;28;20053;-62
2023/09/12 06:34:49;;;;;;;50.00;32.20;;;19.00;99.90;;;;;;5013024;28;20185;-62
2023/09/12 06:37:15;;;;;;;49.53;33.90;;;19.00;99.90;;;;;;5011695;28;20054;-62
2023/09/12 06:39:42;;;;;;;56.25;35.55;;;19.10;99.90;;;;;;5011735;28;20079;-63
2023/09/12 06:42:09;;;;;;;54.25;35.30;;;19.10;99.90;;;;;;5005123;28;20053;-62
2023/09/12 06:44:35;;;;;;;51.45;34.58;;;19.10;99.90;;;;;;4992860;28;20061;-64
2023/09/12 06:47:04;;;;;;;53.92;35.47;;;19.20;99.90;;;;;;4992543;28;20065;-63
2023/09/12 06:49:32;;;;;;;53.33;35.25;;;19.30;99.90;;;;;;4976034;28;20455;-63
2023/09/12 06:51:58;;;;;;;56.10;36.58;;;19.50;99.90;;;;;;4992605;28;20054;-63
2023/09/12 06:54:24;;;;;;;54.65;36.05;;;19.60;99.90;;;;;;4991502;28;20054;-63
2023/09/12 06:56:51;;;;;;;56.30;37.13;;;19.70;99.90;;;;;;4992877;28;20054;-63
2023/09/12 06:59:18;;;;;;;51.75;34.53;;;19.70;99.90;;;;;;4991413;28;20482;-62
2023/09/12 07:01:44;;;;;;;52.60;35.90;;;19.70;99.90;;;;;;4995305;28;20065;-63
2023/09/12 07:04:14;;;;;;;52.15;35.92;;;19.90;99.90;;;;;;5012372;28;20054;-63
2023/09/12 07:06:40;;;;;;;55.55;36.30;;;19.90;99.90;;;;;;5011537;28;20053;-64
2023/09/12 07:09:08;;;;;;;53.40;35.35;;;19.90;99.90;;;;;;5011167;28;20077;-64
2023/09/12 07:11:35;;;;;;;50.85;36.40;;;19.80;99.90;;;;;;5007626;28;20054;-65
2023/09/12 07:14:03;;;;;;;50.20;35.40;;;20.10;99.90;;;;;;4992561;28;20046;-63
2023/09/12 07:16:31;;;;;;;50.53;34.22;;;20.10;99.90;;;;;;4992904;28;20046;-64
2023/09/12 07:18:57;;;;;;;46.05;34.05;;;20.00;99.90;;;;;;5007699;28;20046;-64
2023/09/12 07:21:24;;;;;;;47.55;33.72;;;20.10;99.90;;;;;;4992284;28;20145;-64
2023/09/12 07:23:50;;;;;;;47.15;34.40;;;20.40;99.90;;;;;;5011022;28;20060;-63
2023/09/12 07:26:16;;;;;;;47.30;34.88;;;20.40;99.90;;;;;;5011197;28;20581;-64
2023/09/12 07:28:42;;;;;;;50.50;33.95;;;20.70;99.90;;;;;;5010839;28;20152;-64
2023/09/12 07:31:09;;;;;;;46.42;34.60;;;20.90;99.90;;;;;;5010633;28;20144;-63
2023/09/12 07:33:35;;;;;;;42.20;32.13;;;21.20;99.90;;;;;;5009864;28;20053;-65
2023/09/12 07:36:02;;;;;;;46.20;33.22;;;21.30;99.90;;;;;;5011867;28;20054;-64
2023/09/12 07:38:30;;;;;;;45.80;34.63;;;21.20;99.90;;;;;;5011268;28;20042;-63
2023/09/12 07:40:57;;;;;;;41.70;31.88;;;21.20;99.90;;;;;;5010025;28;20054;-63
2023/09/12 07:43:24;;;;;;;45.45;33.17;;;21.20;99.90;;;;;;4989611;28;20062;-64
2023/09/12 07:45:55;;;;;;;43.67;32.28;;;21.20;99.90;;;;;;4973100;28;20059;-64
2023/09/12 07:48:22;;;;;;;43.95;32.50;;;21.20;99.90;;;;;;4971684;28;20058;-65
2023/09/12 07:50:48;;;;;;;42.60;33.92;;;21.10;99.90;;;;;;4972022;28;20058;-65
2023/09/12 07:53:14;;;;;;;43.33;33.35;;;21.10;99.90;;;;;;5005213;28;20066;-65
2023/09/12 07:55:45;;;;;;;43.95;32.53;;;21.10;99.90;;;;;;5010881;28;20046;-64
2023/09/12 07:58:16;;;;;;;45.45;33.67;;;21.00;99.90;;;;;;5026889;28;20085;-64
2023/09/12 08:00:42;;;;;;;47.55;34.50;;;21.00;99.90;;;;;;5010813;28;20065;-64
2023/09/12 08:03:09;;;;;;;46.42;34.72;;;21.10;99.90;;;;;;4994606;28;20072;-64
2023/09/12 08:05:35;;;;;;;46.15;34.22;;;21.30;99.90;;;;;;4990889;28;20054;-64
2023/09/12 08:08:04;;;;;;;45.20;35.20;;;21.20;99.90;;;;;;4990996;28;20108;-65
2023/09/12 08:10:31;;;;;;;43.25;32.55;;;21.40;99.90;;;;;;4991355;28;20393;-64
2023/09/12 08:12:57;;;;;;;44.25;33.00;;;21.70;99.90;;;;;;5003582;28;20346;-64
2023/09/12 08:15:23;;;;;;;46.67;33.97;;;21.70;99.90;;;;;;5010776;28;20050;-65
2023/09/12 08:17:51;;;;;;;43.15;31.25;;;21.90;99.90;;;;;;5011678;28;20406;-64
2023/09/12 08:20:19;;;;;;;44.13;33.42;;;22.00;99.90;;;;;;5011684;28;20050;-64
2023/09/12 08:22:45;;;;;;;43.20;30.98;;;21.90;99.90;;;;;;5006489;28;20362;-64
2023/09/12 08:25:13;;;;;;;44.70;32.88;;;22.00;99.90;;;;;;4992252;28;20051;-65
2023/09/12 08:27:39;;;;;;;41.83;32.55;;;21.90;99.90;;;;;;4994253;28;20455;-64
2023/09/12 08:30:06;;;;;;;40.70;32.03;;;21.80;99.90;;;;;;4994539;28;20090;-65
2023/09/12 08:32:32;;;;;;;44.40;33.35;;;21.80;99.90;;;;;;5004729;28;20054;-64
2023/09/12 08:34:59;;;;;;;44.70;33.60;;;21.70;99.90;;;;;;5014503;28;20060;-65
2023/09/12 08:37:25;;;;;;;42.55;32.90;;;21.70;99.90;;;;;;5013751;28;20116;-65
2023/09/12 08:39:56;;;;;;;45.45;33.95;;;21.80;99.90;;;;;;5013710;28;20050;-64
2023/09/12 08:42:23;;;;;;;41.42;32.25;;;21.80;99.90;;;;;;4993968;28;20069;-65
2023/09/12 08:44:49;;;;;;;41.10;32.80;;;21.80;99.90;;;;;;4995827;28;20047;-64
2023/09/12 08:47:18;;;;;;;38.72;30.13;;;21.80;99.90;;;;;;4994082;28;20134;-64
2023/09/12 08:49:44;;;;;;;40.63;31.42;;;21.80;99.90;;;;;;4995443;28;20050;-64
2023/09/12 08:52:10;;;;;;;38.15;31.02;;;21.90;99.90;;;;;;5000673;28;20046;-64
2023/09/12 08:54:36;;;;;;;41.65;32.67;;;21.80;99.90;;;;;;5013422;28;20050;-64
2023/09/12 08:57:05;;;;;;;39.40;30.50;;;22.00;99.90;;;;;;5014028;28;20050;-64
2023/09/12 08:59:33;;;;;;;41.75;31.08;;;22.10;99.90;;;;;;5013514;28;20377;-65
2023/09/12 09:02:00;;;;;;;42.33;30.55;;;22.10;99.90;;;;;;5007786;28;20462;-64
2023/09/12 09:04:32;;;;;;;46.25;34.15;;;22.10;99.90;;;;;;4994797;28;20058;-65
2023/09/12 09:06:59;;;;;;;42.63;33.58;;;22.30;99.90;;;;;;4995172;28;20469;-64
2023/09/12 09:09:28;;;;;;;42.05;32.63;;;22.40;99.90;;;;;;4993798;28;20112;-65
2023/09/12 09:11:55;;;;;;;39.22;31.77;;;22.40;99.90;;;;;;4997952;28;20054;-65
2023/09/12 09:14:21;;;;;;;43.00;32.90;;;22.50;99.90;;;;;;5013099;28;20045;-65
2023/09/12 09:16:49;;;;;;;48.33;34.05;;;22.60;99.90;;;;;;4997210;28;20057;-65
2023/09/12 09:19:16;;;;;;;44.45;32.95;;;22.60;99.90;;;;;;5013065;28;20050;-64
2023/09/12 09:21:42;;;;;;;38.70;32.33;;;23.00;99.90;;;;;;5009941;28;20068;-65
2023/09/12 09:24:10;;;;;;;40.40;32.38;;;23.10;99.90;;;;;;5009351;28;20054;-64
2023/09/12 09:26:50;;;;;;;42.40;33.58;;;23.20;99.90;;;;;;4994553;28;20103;-65
2023/09/12 09:29:20;;;;;;;37.58;31.58;;;23.10;99.90;;;;;;4992904;28;20054;-64
2023/09/12 09:31:49;;;;;;;38.40;32.03;;;23.30;99.90;;;;;;4997455;28;20045;-64
2023/09/12 09:34:17;;;;;;;38.25;31.40;;;23.20;99.90;;;;;;5012762;28;20104;-65
2023/09/12 09:36:52;;;;;;;37.80;30.42;;;23.20;99.90;;;;;;5011995;28;20139;-65
2023/09/12 09:39:19;;;;;;;36.50;29.05;;;23.10;99.90;;;;;;5012748;28;20479;-65
2023/09/12 09:41:51;;;;;;;36.80;28.05;;;23.10;99.90;;;;;;5009564;28;20462;-65
2023/09/12 09:44:17;;;;;;;35.53;27.17;;;23.20;99.90;;;;;;4992952;28;20046;-65
2023/09/12 09:46:44;;;;;;;29.45;23.50;;;23.20;99.90;;;;;;5009471;28;20065;-65
2023/09/12 09:49:11;;;;;;;33.38;26.05;;;23.50;99.90;;;;;;4994412;28;20065;-65
2023/09/12 09:51:44;;;;;;;32.85;26.30;;;23.60;99.90;;;;;;4994358;28;20058;-65
2023/09/12 09:54:12;;;;;;;31.48;24.90;;;23.60;99.90;;;;;;5012653;28;20050;-65
2023/09/12 09:56:48;;;;;;;34.40;25.30;;;23.80;99.90;;;;;;5012309;28;20486;-65
2023/09/12 09:59:20;;;;;;;31.45;23.48;;;23.80;99.90;;;;;;5013614;28;20057;-65
2023/09/12 10:01:48;;;;;;;30.65;23.10;;;23.80;99.90;;;;;;5009026;28;20054;-65
2023/09/12 10:04:15;;;;;;;30.60;22.45;;;24.00;99.90;;;;;;4992796;28;20461;-64
2023/09/12 10:06:46;;;;;;;29.70;22.05;;;24.30;99.90;;;;;;5009569;28;20089;-65
2023/09/12 10:09:13;;;;;;;29.98;22.75;;;24.30;99.90;;;;;;4993042;28;20406;-66
2023/09/12 10:11:42;;;;;;;29.17;21.48;;;24.50;99.90;;;;;;4994129;28;20046;-66
2023/09/12 10:14:09;;;;;;;26.05;20.05;;;24.40;99.90;;;;;;5011739;28;20091;-64
2023/09/12 10:16:44;;;;;;;25.52;20.08;;;24.50;99.90;;;;;;5013365;28;20050;-64
2023/09/12 10:19:13;;;;;;;27.98;22.02;;;24.10;99.90;;;;;;5012174;28;20046;-65
2023/09/12 10:21:57;;;;;;;24.75;19.92;;;24.00;99.90;;;;;;5009539;28;20706;-64
2023/09/12 10:24:27;;;;;;;27.17;19.73;;;23.90;99.90;;;;;;4993529;28;20058;-65
2023/09/12 10:26:54;;;;;;;23.13;18.90;;;24.00;99.90;;;;;;4992476;28;20058;-64
2023/09/12 10:29:22;;;;;;;26.95;20.08;;;24.00;99.90;;;;;;4992020;28;20466;-64
2023/09/12 10:31:49;;;;;;;26.90;20.33;;;24.00;99.90;;;;;;4994683;28;20502;-64
2023/09/12 10:34:17;;;;;;;34.50;22.10;;;24.00;99.90;;;;;;5011579;28;20069;-64
2023/09/12 10:36:44;;;;;;;29.73;21.52;;;23.90;99.90;;;;;;5012413;28;20050;-65
2023/09/12 10:39:14;;;;;;;25.75;20.30;;;23.90;99.90;;;;;;5011647;28;20060;-66
2023/09/12 10:41:41;;;;;;;28.25;20.05;;;23.80;99.90;;;;;;5008971;28;20446;-65
2023/09/12 10:44:12;;;;;;;25.10;18.88;;;24.00;99.90;;;;;;5007565;28;20050;-65
2023/09/12 10:46:40;;;;;;;20.27;15.95;;;24.00;99.90;;;;;;4992803;28;20127;-64
2023/09/12 10:49:11;;;;;;;18.30;15.07;;;24.10;99.90;;;;;;4990904;28;20533;-64
2023/09/12 10:51:39;;;;;;;18.80;14.80;;;24.10;99.90;;;;;;4992855;28;20103;-64
2023/09/12 10:54:07;;;;;;;20.90;15.90;;;24.00;99.90;;;;;;5011104;28;20057;-64
2023/09/12 10:56:34;;;;;;;19.42;14.65;;;24.10;99.90;;;;;;5011058;28;20060;-65
2023/09/12 10:59:04;;;;;;;24.60;17.08;;;24.20;99.90;;;;;;5011112;28;20050;-65
2023/09/12 11:01:31;;;;;;;22.38;16.80;;;24.30;99.90;;;;;;5011051;28;20046;-64
2023/09/12 11:03:57;;;;;;;23.17;18.17;;;24.50;99.90;;;;;;4992715;28;20050;-64
2023/09/12 11:06:30;;;;;;;21.05;16.40;;;24.60;99.90;;;;;;5007958;28;20844;-65
2023/09/12 11:09:16;;;;;;;24.55;19.20;;;24.60;99.90;;;;;;4991955;28;20085;-64
2023/09/12 11:11:44;;;;;;;24.85;20.08;;;24.70;99.90;;;;;;4992377;28;20061;-65
2023/09/12 11:14:10;;;;;;;28.27;19.20;;;24.80;99.90;;;;;;5003650;28;20431;-64
2023/09/12 11:16:36;;;;;;;23.58;18.60;;;24.90;99.90;;;;;;4971877;28;20054;-65
2023/09/12 11:19:20;;;;;;;25.95;19.52;;;24.80;99.90;;;;;;4972068;28;20070;-64
2023/09/12 11:21:50;;;;;;;25.08;20.08;;;24.80;99.90;;;;;;4976701;28;20042;-64
2023/09/12 11:24:18;;;;;;;25.67;20.05;;;24.80;99.90;;;;;;5010840;28;20145;-65
2023/09/12 11:26:58;;;;;;;24.30;18.50;;;24.60;99.90;;;;;;5010904;28;20137;-65
2023/09/12 11:29:29;;;;;;;23.17;19.55;;;24.80;99.90;;;;;;5010943;28;20341;-65
2023/09/12 11:31:59;;;;;;;23.48;19.20;;;25.00;99.90;;;;;;5003108;28;20058;-64
2023/09/12 11:34:27;;;;;;;23.73;17.77;;;25.20;99.90;;;;;;4971640;28;20055;-64
2023/09/12 11:37:02;;;;;;;24.08;18.05;;;25.30;99.90;;;;;;4987546;28;20051;-65
2023/09/12 11:39:31;;;;;;;23.63;18.65;;;25.60;99.90;;;;;;4988668;28;20113;-65
2023/09/12 11:42:00;;;;;;;22.45;17.05;;;25.50;99.90;;;;;;4979389;28;20054;-65
2023/09/12 11:44:27;;;;;;;18.85;15.50;;;25.70;99.90;;;;;;5010581;28;20489;-64
2023/09/12 11:46:54;;;;;;;20.85;15.60;;;25.70;99.90;;;;;;5011012;28;20062;-65
2023/09/12 11:49:21;;;;;;;22.85;18.20;;;25.70;99.90;;;;;;4994707;28;20060;-65
2023/09/12 11:51:51;;;;;;;22.65;17.88;;;25.60;99.90;;;;;;5008106;28;20153;-64
2023/09/12 11:54:20;;;;;;;21.27;16.88;;;25.70;99.90;;;;;;5007970;28;20112;-65
2023/09/12 11:56:48;;;;;;;17.65;15.00;;;25.70;99.90;;;;;;4992444;28;20058;-66
2023/09/12 11:59:18;;;;;;;17.83;13.75;;;25.90;99.90;;;;;;4992273;28;20070;-65
2023/09/12 12:01:46;;;;;;;15.18;11.55;;;25.90;99.90;;;;;;4996685;28;20105;-65
2023/09/12 12:04:13;;;;;;;16.27;13.18;;;26.00;99.90;;;;;;5015594;28;20049;-65
2023/09/12 12:06:39;;;;;;;14.98;11.50;;;26.00;99.90;;;;;;5014905;28;20058;-65
2023/09/12 12:09:06;;;;;;;16.40;11.70;;;26.00;99.90;;;;;;5014437;28;20072;-65
2023/09/12 12:11:32;;;;;;;13.50;11.20;;;26.10;99.90;;;;;;5013984;28;20117;-65
2023/09/12 12:14:09;;;;;;;16.60;11.32;;;26.30;99.90;;;;;;4974930;28;20054;-65
2023/09/12 12:16:36;;;;;;;12.90;9.07;;;26.20;99.90;;;;;;4975727;28;20509;-65
2023/09/12 12:19:02;;;;;;;13.57;8.45;;;26.30;99.90;;;;;;4959543;28;20372;-65
2023/09/12 12:21:28;;;;;;;13.23;8.40;;;26.10;99.90;;;;;;4975047;28;20058;-66
2023/09/12 12:23:59;;;;;;;14.98;9.75;;;26.20;99.90;;;;;;5013768;28;20061;-65
2023/09/12 12:26:26;;;;;;;12.27;9.15;;;25.90;99.90;;;;;;5015574;28;20046;-65